createdAt,value
2017-07-19T00:00:22.350Z,13.57
2017-07-19T00:02:50.021Z,13.43
2017-07-19T00:05:18.243Z,12.30
2017-07-19T00:07:45.955Z,12.33
2017-07-19T00:10:15.142Z,11.27
2017-07-19T00:12:42.794Z,12.20
2017-07-19T00:15:11.506Z,11.90
2017-07-19T00:17:39.978Z,10.30
2017-07-19T00:20:07.655Z,10.67
2017-07-19T00:22:36.014Z,10.90
2017-07-19T00:25:04.410Z,10.90
2017-07-19T00:27:32.072Z,14.93
2017-07-19T00:30:00.523Z,12.20
2017-07-19T00:32:28.216Z,11.50
2017-07-19T00:34:55.879Z,11.13
2017-07-19T00:37:23.570Z,10.70
2017-07-19T00:39:51.270Z,11.30
2017-07-19T00:42:18.922Z,10.50
2017-07-19T00:44:46.611Z,11.10
2017-07-19T00:47:14.304Z,11.93
2017-07-19T00:49:42.548Z,9.17
2017-07-19T00:52:11.226Z,10.97
2017-07-19T00:54:39.255Z,9.03
2017-07-19T00:57:07.004Z,9.80
2017-07-19T00:59:34.644Z,9.20
2017-07-19T01:02:02.808Z,9.30
2017-07-19T01:04:30.475Z,8.40
2017-07-19T01:06:58.122Z,8.87
2017-07-19T01:09:25.845Z,9.00
2017-07-19T01:11:53.527Z,10.90
2017-07-19T01:14:21.292Z,8.17
2017-07-19T01:16:49.750Z,9.33
2017-07-19T01:19:17.455Z,9.90
2017-07-19T01:21:46.125Z,10.03
2017-07-19T01:24:14.662Z,9.27
2017-07-19T01:26:42.335Z,9.53
2017-07-19T01:29:10.070Z,9.43
2017-07-19T01:34:38.689Z,9.40
2017-07-19T01:37:06.360Z,8.70
2017-07-19T01:39:34.683Z,10.03
2017-07-19T01:42:03.492Z,11.40
2017-07-19T01:44:31.252Z,14.03
2017-07-19T01:46:58.964Z,12.77
2017-07-19T01:49:27.802Z,9.87
2017-07-19T01:51:55.521Z,11.93
2017-07-19T01:54:23.362Z,8.90
2017-07-19T01:56:51.028Z,9.83
2017-07-19T01:59:18.711Z,9.57
2017-07-19T02:01:46.470Z,11.23
2017-07-19T02:04:14.493Z,18.77
2017-07-19T02:06:42.269Z,10.90
2017-07-19T02:09:10.096Z,10.10
2017-07-19T02:11:37.802Z,9.83
2017-07-19T02:14:05.519Z,10.07
2017-07-19T02:16:33.195Z,12.07
2017-07-19T02:19:00.927Z,11.00
2017-07-19T02:21:28.818Z,17.33
2017-07-19T02:23:57.365Z,11.13
2017-07-19T02:26:25.041Z,10.40
2017-07-19T02:28:52.732Z,9.30
2017-07-19T02:31:20.508Z,11.90
2017-07-19T02:33:48.198Z,8.60
2017-07-19T02:36:15.993Z,8.50
2017-07-19T02:38:43.715Z,12.10
2017-07-19T02:41:11.366Z,9.77
2017-07-19T02:43:40.073Z,9.50
2017-07-19T02:46:07.768Z,8.73
2017-07-19T02:48:35.342Z,8.03
2017-07-19T02:51:03.093Z,9.97
2017-07-19T02:53:30.918Z,9.10
2017-07-19T02:55:58.626Z,9.53
2017-07-19T02:58:26.391Z,14.03
2017-07-19T03:00:54.072Z,8.93
2017-07-19T03:03:22.684Z,8.70
2017-07-19T03:05:50.382Z,9.00
2017-07-19T03:08:18.068Z,8.90
2017-07-19T03:10:45.760Z,10.33
2017-07-19T03:13:13.479Z,11.93
2017-07-19T03:15:42.289Z,10.60
2017-07-19T03:18:09.952Z,11.10
2017-07-19T03:20:37.615Z,8.83
2017-07-19T03:23:05.279Z,10.03
2017-07-19T03:25:33.893Z,13.87
2017-07-19T03:28:02.417Z,9.67
2017-07-19T03:30:30.149Z,9.03
2017-07-19T03:32:57.865Z,10.73
2017-07-19T03:35:25.518Z,9.53
2017-07-19T03:37:53.256Z,11.27
2017-07-19T03:40:20.935Z,11.43
2017-07-19T03:42:48.610Z,11.03
2017-07-19T03:45:16.295Z,10.90
2017-07-19T03:47:45.408Z,11.13
2017-07-19T03:50:13.893Z,10.90
2017-07-19T03:52:41.561Z,12.50
2017-07-19T03:55:10.455Z,12.50
2017-07-19T03:57:38.090Z,11.13
2017-07-19T04:00:07.440Z,9.47
2017-07-19T04:02:35.089Z,12.63
2017-07-19T04:05:02.742Z,10.27
2017-07-19T04:07:30.421Z,11.97
2017-07-19T04:09:58.111Z,15.70
2017-07-19T04:12:25.880Z,11.30
2017-07-19T04:14:53.861Z,12.67
2017-07-19T04:17:21.594Z,12.17
2017-07-19T04:19:49.226Z,11.87
2017-07-19T04:22:17.788Z,12.10
2017-07-19T04:24:46.104Z,12.23
2017-07-19T04:27:13.918Z,11.77
2017-07-19T04:29:42.763Z,16.03
2017-07-19T04:32:10.477Z,10.90
2017-07-19T04:34:38.093Z,16.13
2017-07-19T04:37:05.844Z,10.47
2017-07-19T04:39:33.597Z,10.27
2017-07-19T04:42:01.450Z,9.77
2017-07-19T04:44:29.127Z,9.90
2017-07-19T04:46:56.902Z,13.47
2017-07-19T04:49:24.573Z,10.80
2017-07-19T04:51:52.230Z,10.77
2017-07-19T04:54:19.790Z,10.20
2017-07-19T04:56:47.350Z,18.37
2017-07-19T04:59:14.983Z,18.07
2017-07-19T05:01:42.639Z,17.27
2017-07-19T05:04:10.497Z,11.83
2017-07-19T05:06:38.134Z,11.53
2017-07-19T05:09:05.758Z,12.60
2017-07-19T05:11:33.337Z,12.47
2017-07-19T05:14:00.870Z,16.23
2017-07-19T05:16:28.473Z,13.13
2017-07-19T05:18:59.862Z,20.13
2017-07-19T05:21:27.468Z,20.90
2017-07-19T05:23:55.156Z,16.13
2017-07-19T05:26:22.722Z,11.40
2017-07-19T05:28:50.714Z,11.80
2017-07-19T05:31:18.336Z,14.00
2017-07-19T05:33:45.972Z,14.67
2017-07-19T05:36:13.636Z,17.23
2017-07-19T05:38:41.287Z,12.97
2017-07-19T05:41:08.939Z,27.90
2017-07-19T05:43:36.578Z,15.47
2017-07-19T05:46:04.185Z,15.60
2017-07-19T05:48:32.723Z,13.83
2017-07-19T05:51:00.319Z,16.97
2017-07-19T05:53:27.893Z,17.63
2017-07-19T05:55:55.488Z,14.83
2017-07-19T05:58:23.098Z,13.87
2017-07-19T06:00:51.536Z,13.70
2017-07-19T06:03:19.123Z,26.50
2017-07-19T06:06:35.703Z,16.30
2017-07-19T06:09:03.479Z,14.57
2017-07-19T06:11:31.054Z,12.93
2017-07-19T06:14:03.240Z,14.27
2017-07-19T06:16:32.571Z,16.83
2017-07-19T06:19:00.136Z,17.80
2017-07-19T06:21:27.910Z,17.60
2017-07-19T06:23:55.442Z,25.97
2017-07-19T06:26:23.044Z,14.27
2017-07-19T06:28:51.480Z,17.30
2017-07-19T06:31:19.160Z,13.90
2017-07-19T06:33:47.694Z,19.97
2017-07-19T06:36:15.281Z,15.63
2017-07-19T06:38:43.202Z,15.93
2017-07-19T06:41:10.837Z,14.13
2017-07-19T06:43:38.463Z,16.50
2017-07-19T06:46:06.139Z,20.13
2017-07-19T06:48:33.707Z,14.30
2017-07-19T06:51:01.329Z,14.57
2017-07-19T06:53:29.003Z,12.93
2017-07-19T06:55:56.858Z,14.43
2017-07-19T06:58:24.654Z,16.97
2017-07-19T07:00:53.000Z,18.00
2017-07-19T07:03:20.581Z,20.70
2017-07-19T07:05:48.302Z,16.30
2017-07-19T07:08:16.640Z,15.27
2017-07-19T07:10:45.076Z,15.50
2017-07-19T07:13:12.642Z,14.37
2017-07-19T07:15:40.370Z,13.90
2017-07-19T07:18:08.019Z,15.87
2017-07-19T07:20:35.927Z,12.67
2017-07-19T07:23:03.576Z,16.20
2017-07-19T07:25:31.358Z,13.20
2017-07-19T07:27:58.944Z,18.93
2017-07-19T07:30:27.512Z,13.30
2017-07-19T07:32:55.137Z,11.90
2017-07-19T07:35:22.805Z,14.20
2017-07-19T07:37:50.481Z,16.53
2017-07-19T07:40:18.111Z,14.60
2017-07-19T07:42:45.667Z,15.00
2017-07-19T07:45:14.512Z,15.57
2017-07-19T07:47:42.060Z,13.00
2017-07-19T07:50:09.677Z,11.97
2017-07-19T07:52:37.441Z,13.37
2017-07-19T07:55:05.139Z,10.60
2017-07-19T07:57:34.428Z,12.20
2017-07-19T08:00:02.232Z,10.30
2017-07-19T08:02:30.167Z,10.43
2017-07-19T08:04:57.745Z,9.80
2017-07-19T08:07:25.334Z,10.87
2017-07-19T08:09:52.977Z,9.40
2017-07-19T08:12:20.575Z,10.10
2017-07-19T08:14:49.071Z,12.47
2017-07-19T08:17:17.153Z,11.77
2017-07-19T08:19:44.724Z,12.47
2017-07-19T08:22:12.254Z,12.97
2017-07-19T08:24:39.863Z,8.57
2017-07-19T08:27:07.450Z,7.67
2017-07-19T08:29:35.095Z,10.30
2017-07-19T08:32:03.929Z,10.93
2017-07-19T08:34:32.366Z,7.47
2017-07-19T08:36:59.907Z,7.20
2017-07-19T08:39:27.514Z,6.90
2017-07-19T08:41:55.193Z,7.97
2017-07-19T08:44:22.741Z,6.03
2017-07-19T08:46:50.377Z,12.97
2017-07-19T08:49:18.158Z,6.27
2017-07-19T08:51:45.721Z,5.20
2017-07-19T08:54:13.583Z,7.00
2017-07-19T08:56:41.962Z,6.20
2017-07-19T08:59:09.548Z,5.33
2017-07-19T09:01:37.143Z,6.10
2017-07-19T09:04:04.791Z,6.93
2017-07-19T09:06:32.328Z,4.30
2017-07-19T09:09:00.506Z,5.13
2017-07-19T09:11:28.118Z,4.83
2017-07-19T09:13:55.825Z,9.50
2017-07-19T09:16:23.944Z,5.73
2017-07-19T09:18:51.572Z,4.57
2017-07-19T09:21:19.197Z,4.17
2017-07-19T09:23:46.818Z,4.00
2017-07-19T09:26:14.573Z,4.57
2017-07-19T09:28:43.028Z,5.60
2017-07-19T09:31:10.718Z,6.47
2017-07-19T09:33:38.318Z,4.13
2017-07-19T09:36:05.901Z,6.33
2017-07-19T09:38:33.535Z,4.63
2017-07-19T09:41:01.142Z,4.37
2017-07-19T09:43:28.807Z,5.20
2017-07-19T09:45:56.441Z,5.30
2017-07-19T09:48:24.009Z,5.50
2017-07-19T09:50:51.594Z,4.50
2017-07-19T09:53:19.179Z,5.20
2017-07-19T09:55:46.910Z,4.27
2017-07-19T09:58:14.495Z,4.97
2017-07-19T10:00:42.216Z,5.03
2017-07-19T10:03:10.060Z,6.90
2017-07-19T10:05:37.845Z,5.10
2017-07-19T10:10:46.333Z,4.23
2017-07-19T10:13:14.939Z,7.80
2017-07-19T10:15:42.583Z,4.40
2017-07-19T10:18:10.166Z,17.00
2017-07-19T10:20:38.421Z,4.50
2017-07-19T10:23:06.824Z,6.37
2017-07-19T10:25:34.429Z,4.93
2017-07-19T10:28:02.044Z,4.43
2017-07-19T10:30:30.104Z,4.47
2017-07-19T10:32:57.755Z,4.80
2017-07-19T10:35:26.365Z,4.40
2017-07-19T10:37:54.005Z,5.70
2017-07-19T10:40:21.611Z,7.77
2017-07-19T10:42:58.617Z,4.43
2017-07-19T10:45:26.337Z,6.33
2017-07-19T10:47:54.409Z,8.00
2017-07-19T10:50:22.040Z,5.83
2017-07-19T10:52:49.787Z,7.30
2017-07-19T10:55:17.513Z,4.87
2017-07-19T10:57:45.130Z,6.47
2017-07-19T11:00:12.807Z,4.90
2017-07-19T11:02:40.371Z,5.30
2017-07-19T11:05:08.673Z,4.63
2017-07-19T11:07:36.302Z,4.67
2017-07-19T11:10:03.929Z,7.73
2017-07-19T11:12:31.566Z,7.63
2017-07-19T11:14:59.238Z,4.60
2017-07-19T11:17:27.055Z,4.90
2017-07-19T11:19:54.676Z,8.00
2017-07-19T11:22:22.285Z,7.23
2017-07-19T11:24:49.941Z,4.00
2017-07-19T11:27:17.543Z,4.90
2017-07-19T11:29:45.139Z,4.97
2017-07-19T11:32:13.041Z,4.67
2017-07-19T11:34:40.708Z,4.37
2017-07-19T11:37:08.344Z,6.40
2017-07-19T11:39:36.495Z,6.07
2017-07-19T11:42:04.139Z,4.93
2017-07-19T11:44:31.751Z,5.43
2017-07-19T11:47:00.566Z,4.40
2017-07-19T11:49:28.154Z,5.20
2017-07-19T11:51:55.698Z,4.73
2017-07-19T11:54:24.165Z,5.40
2017-07-19T11:56:53.925Z,4.77
2017-07-19T11:59:22.115Z,7.47
2017-07-19T12:01:49.900Z,6.00
2017-07-19T12:04:19.447Z,7.57
2017-07-19T12:06:47.854Z,5.33
2017-07-19T12:09:16.468Z,5.10
2017-07-19T12:11:47.612Z,10.80
2017-07-19T12:14:18.158Z,6.63
2017-07-19T12:16:52.808Z,5.67
2017-07-19T12:19:23.742Z,5.07
2017-07-19T12:21:54.372Z,4.73
2017-07-19T12:24:22.874Z,5.30
2017-07-19T12:26:51.335Z,5.17
2017-07-19T12:29:20.626Z,6.17
2017-07-19T12:31:49.281Z,6.20
2017-07-19T12:34:18.356Z,7.43
2017-07-19T12:36:46.544Z,5.43
2017-07-19T12:39:14.730Z,5.33
2017-07-19T12:41:43.034Z,4.63
2017-07-19T12:44:11.576Z,5.27
2017-07-19T12:46:40.395Z,5.37
2017-07-19T12:49:08.191Z,5.30
2017-07-19T12:51:37.344Z,5.10
2017-07-19T12:54:05.704Z,5.07
2017-07-19T12:56:33.641Z,6.73
2017-07-19T12:59:02.864Z,5.20
2017-07-19T13:01:31.427Z,5.10
2017-07-19T13:04:00.748Z,7.23
2017-07-19T13:06:28.776Z,4.70
2017-07-19T13:08:57.400Z,5.10
2017-07-19T13:11:25.546Z,4.93
2017-07-19T13:13:53.934Z,5.40
2017-07-19T13:16:21.633Z,6.67
2017-07-19T13:18:50.346Z,5.10
2017-07-19T13:21:17.977Z,4.80
2017-07-19T13:23:46.972Z,6.40
2017-07-19T13:26:16.646Z,5.47
2017-07-19T13:28:45.316Z,4.50
2017-07-19T13:31:12.894Z,5.37
2017-07-19T13:33:41.646Z,5.27
2017-07-19T13:36:10.840Z,5.27
2017-07-19T13:38:38.735Z,6.77
2017-07-19T13:41:07.913Z,5.90
2017-07-19T13:43:36.502Z,7.83
2017-07-19T13:46:04.885Z,5.00
2017-07-19T13:48:32.557Z,5.70
2017-07-19T13:51:00.267Z,4.90
2017-07-19T13:53:28.765Z,5.43
2017-07-19T13:55:57.163Z,4.83
2017-07-19T13:58:24.826Z,4.70
2017-07-19T14:00:52.394Z,8.30
2017-07-19T14:03:20.091Z,4.23
2017-07-19T14:05:47.632Z,5.77
2017-07-19T14:08:15.356Z,4.40
2017-07-19T14:10:43.120Z,5.93
2017-07-19T14:13:10.886Z,6.23
2017-07-19T14:15:38.598Z,5.17
2017-07-19T14:18:06.322Z,5.90
2017-07-19T14:20:34.082Z,5.23
2017-07-19T14:23:01.834Z,4.43
2017-07-19T14:25:29.741Z,4.50
2017-07-19T14:27:58.645Z,8.57
2017-07-19T14:30:26.501Z,4.60
2017-07-19T14:32:54.664Z,4.57
2017-07-19T14:35:23.318Z,4.10
2017-07-19T14:37:50.952Z,8.43
2017-07-19T14:40:19.302Z,4.60
2017-07-19T14:42:48.035Z,4.80
2017-07-19T14:45:15.717Z,4.90
2017-07-19T14:47:43.425Z,4.30
2017-07-19T14:50:11.822Z,3.80
2017-07-19T14:52:39.443Z,5.70
2017-07-19T14:55:08.079Z,4.90
2017-07-19T14:57:36.055Z,6.00
2017-07-19T15:00:12.040Z,4.70
2017-07-19T15:02:40.373Z,4.63
2017-07-19T15:05:08.111Z,4.33
2017-07-19T15:07:36.444Z,3.80
2017-07-19T15:10:04.340Z,5.50
2017-07-19T15:12:31.957Z,5.50
2017-07-19T15:14:59.812Z,10.93
2017-07-19T15:17:28.279Z,4.43
2017-07-19T15:19:56.894Z,4.70
2017-07-19T15:22:25.400Z,7.33
2017-07-19T15:24:53.511Z,4.17
2017-07-19T15:27:21.778Z,4.60
2017-07-19T15:29:49.392Z,4.00
2017-07-19T15:32:17.005Z,8.63
2017-07-19T15:34:45.248Z,8.20
2017-07-19T15:37:12.798Z,4.90
2017-07-19T15:39:40.484Z,4.00
2017-07-19T15:42:08.609Z,4.13
2017-07-19T15:44:36.286Z,3.60
2017-07-19T15:47:05.470Z,4.00
2017-07-19T15:49:32.998Z,4.07
2017-07-19T15:52:00.831Z,4.63
2017-07-19T15:54:28.625Z,4.03
2017-07-19T15:56:56.503Z,5.80
2017-07-19T15:59:24.033Z,5.30
2017-07-19T16:01:52.743Z,4.93
2017-07-19T16:04:21.886Z,4.80
2017-07-19T16:06:49.507Z,4.03
2017-07-19T16:09:18.238Z,4.30
2017-07-19T16:11:46.354Z,4.37
2017-07-19T16:14:14.875Z,4.70
2017-07-19T16:16:42.556Z,3.83
2017-07-19T16:19:10.967Z,5.17
2017-07-19T16:21:39.271Z,6.30
2017-07-19T16:24:06.947Z,5.20
2017-07-19T16:26:35.759Z,4.57
2017-07-19T16:29:03.531Z,4.67
2017-07-19T16:31:31.177Z,5.90
2017-07-19T16:34:00.288Z,4.60
2017-07-19T16:36:27.871Z,4.87
2017-07-19T16:38:56.404Z,9.57
2017-07-19T16:41:25.775Z,4.93
2017-07-19T16:43:54.697Z,5.07
2017-07-19T16:46:23.638Z,4.20
2017-07-19T16:48:52.106Z,4.10
2017-07-19T16:51:21.166Z,5.20
2017-07-19T16:53:49.183Z,5.10
2017-07-19T16:56:18.645Z,6.13
2017-07-19T16:58:46.963Z,4.83
2017-07-19T17:01:15.541Z,3.90
2017-07-19T17:03:44.452Z,5.37
2017-07-19T17:06:12.075Z,5.80
2017-07-19T17:08:39.801Z,7.83
2017-07-19T17:11:07.482Z,4.13
2017-07-19T17:13:35.735Z,4.90
2017-07-19T17:16:04.186Z,5.00
2017-07-19T17:18:32.930Z,5.13
2017-07-19T17:21:03.090Z,8.13
2017-07-19T17:23:30.772Z,5.47
2017-07-19T17:26:01.979Z,6.03
2017-07-19T17:28:29.617Z,4.47
2017-07-19T17:30:58.712Z,4.30
2017-07-19T17:33:27.403Z,5.90
2017-07-19T17:35:56.862Z,4.63
2017-07-19T17:38:24.555Z,7.90
2017-07-19T17:40:53.002Z,7.40
2017-07-19T17:43:22.187Z,7.70
2017-07-19T17:45:49.786Z,7.00
2017-07-19T17:48:17.415Z,8.40
2017-07-19T17:50:45.804Z,6.50
2017-07-19T17:53:14.476Z,6.20
2017-07-19T17:55:45.559Z,7.37
2017-07-19T17:58:15.181Z,9.07
2017-07-19T18:00:43.815Z,10.47
2017-07-19T18:03:12.417Z,8.50
2017-07-19T18:05:40.505Z,6.90
2017-07-19T18:08:09.076Z,7.33
2017-07-19T18:10:37.460Z,6.53
2017-07-19T18:13:05.598Z,6.83
2017-07-19T18:15:33.932Z,6.97
2017-07-19T18:18:01.644Z,4.93
2017-07-19T18:20:29.333Z,8.37
2017-07-19T18:22:57.043Z,5.40
2017-07-19T18:25:40.508Z,8.63
2017-07-19T18:28:09.242Z,5.13
2017-07-19T18:30:37.153Z,10.57
2017-07-19T18:33:05.751Z,10.07
2017-07-19T18:35:33.474Z,6.50
2017-07-19T18:38:01.257Z,6.97
2017-07-19T18:40:29.908Z,8.53
2017-07-19T18:42:59.082Z,8.93
2017-07-19T18:45:27.739Z,9.13
2017-07-19T18:47:56.748Z,9.70
2017-07-19T18:50:27.006Z,10.90
2017-07-19T18:52:55.529Z,16.13
2017-07-19T18:55:24.720Z,11.47
2017-07-19T18:57:53.422Z,11.67
2017-07-19T19:03:42.937Z,9.00
2017-07-19T19:06:11.454Z,8.73
2017-07-19T19:08:39.164Z,14.40
2017-07-19T19:11:06.889Z,17.40
2017-07-19T19:13:34.605Z,10.70
2017-07-19T19:16:02.729Z,16.00
2017-07-19T19:18:30.946Z,8.10
2017-07-19T19:20:58.652Z,9.83
2017-07-19T19:23:26.353Z,9.90
2017-07-19T19:25:54.090Z,8.23
2017-07-19T19:28:21.721Z,13.33
2017-07-19T19:30:49.444Z,12.03
2017-07-19T19:33:17.194Z,10.20
2017-07-19T19:35:47.118Z,13.93
2017-07-19T19:38:14.866Z,11.43
2017-07-19T19:40:44.308Z,8.43
2017-07-19T19:43:12.017Z,8.30
2017-07-19T19:45:39.824Z,8.87
2017-07-19T19:48:07.493Z,7.40
2017-07-19T19:50:35.195Z,15.10
2017-07-19T19:53:03.761Z,14.63
2017-07-19T19:55:31.475Z,11.10
2017-07-19T19:57:59.229Z,9.97
2017-07-19T20:00:27.111Z,9.87
2017-07-19T20:02:55.674Z,9.43
2017-07-19T20:05:24.229Z,8.03
2017-07-19T20:07:53.026Z,9.00
2017-07-19T20:10:21.228Z,8.00
2017-07-19T20:12:49.518Z,9.83
2017-07-19T20:15:17.303Z,10.43
2017-07-19T20:17:44.936Z,12.97
2017-07-19T20:20:12.620Z,9.17
2017-07-19T20:22:43.562Z,11.03
2017-07-19T20:25:16.564Z,8.93
2017-07-19T20:27:46.372Z,12.40
2017-07-19T20:30:20.543Z,9.37
2017-07-19T20:32:56.392Z,11.07
2017-07-19T20:35:28.998Z,9.20
2017-07-19T20:37:59.017Z,14.03
2017-07-19T20:40:27.778Z,7.23
2017-07-19T20:42:56.600Z,12.93
2017-07-19T20:48:48.202Z,8.90
2017-07-19T20:51:19.207Z,10.27
2017-07-19T20:56:27.571Z,11.67
2017-07-19T20:58:55.957Z,10.83
2017-07-19T21:01:27.024Z,10.43
2017-07-19T21:03:59.366Z,10.23
2017-07-19T21:06:30.300Z,10.60
2017-07-19T21:08:58.143Z,12.83
2017-07-19T21:11:28.620Z,9.93
2017-07-19T21:13:57.276Z,13.80
2017-07-19T21:16:26.713Z,12.40
2017-07-19T21:18:54.896Z,12.93
2017-07-19T21:21:22.634Z,8.10
2017-07-19T21:23:51.347Z,8.20
2017-07-19T21:26:21.257Z,8.63
2017-07-19T21:28:50.244Z,9.10
2017-07-19T21:31:20.266Z,8.77
2017-07-19T21:33:52.305Z,8.00
2017-07-19T21:36:24.808Z,10.43
2017-07-19T21:44:53.261Z,8.20
2017-07-19T21:47:24.165Z,9.33
2017-07-19T21:49:52.131Z,8.63
2017-07-19T21:52:21.056Z,9.40
2017-07-19T21:54:50.111Z,10.03
2017-07-19T21:57:25.660Z,9.20
2017-07-19T21:59:59.771Z,8.80
2017-07-19T22:02:30.238Z,9.27
2017-07-19T22:04:57.897Z,10.43
2017-07-19T22:07:30.085Z,8.93
2017-07-19T22:10:05.445Z,9.27
2017-07-19T22:12:37.186Z,9.27
2017-07-19T22:15:08.126Z,10.33
2017-07-19T22:17:39.650Z,8.93
2017-07-19T22:20:10.145Z,15.50
2017-07-19T22:22:40.029Z,11.77
2017-07-19T22:25:11.728Z,9.50
2017-07-19T22:27:41.646Z,13.20
2017-07-19T22:30:17.932Z,11.23
2017-07-19T22:32:46.076Z,11.40
2017-07-19T22:35:14.236Z,9.60
2017-07-19T22:37:42.769Z,8.67
2017-07-19T22:40:11.833Z,8.87
2017-07-19T22:42:40.118Z,8.90
2017-07-19T22:45:08.992Z,8.47
2017-07-19T22:47:36.653Z,9.20
2017-07-19T22:50:04.334Z,10.20
2017-07-19T22:52:31.989Z,10.27
2017-07-19T22:55:00.877Z,8.67
2017-07-19T22:57:28.626Z,8.07
2017-07-19T22:59:57.275Z,9.30
2017-07-19T23:02:24.912Z,11.60
2017-07-19T23:04:52.512Z,8.43
2017-07-19T23:07:20.023Z,8.43
2017-07-19T23:09:48.541Z,8.17
2017-07-19T23:12:17.594Z,9.00
2017-07-19T23:14:45.150Z,9.23
2017-07-19T23:17:13.536Z,9.47
2017-07-19T23:19:42.460Z,7.70
2017-07-19T23:22:10.816Z,8.33
2017-07-19T23:24:38.501Z,8.93
2017-07-19T23:27:06.064Z,10.63
2017-07-19T23:29:33.782Z,9.87
2017-07-19T23:32:02.411Z,8.13
2017-07-19T23:34:30.119Z,9.27
2017-07-19T23:36:59.386Z,7.70
2017-07-19T23:39:29.016Z,9.43
2017-07-19T23:41:56.679Z,7.90
2017-07-19T23:44:24.318Z,8.10
2017-07-19T23:46:51.960Z,8.10
2017-07-19T23:49:21.857Z,8.90
2017-07-19T23:51:50.859Z,7.80
2017-07-19T23:54:18.643Z,7.63
2017-07-19T23:56:46.701Z,7.73
2017-07-19T23:59:14.319Z,8.10
